Time;durP1;ratioP1;P1;durP2;ratioP2;P2;SDS_P1;SDS_P2;PMS_P1;PMS_P2;Temp;Humidity;BMP_temperature;BMP_pressure;BME280_temperature;BME280_humidity;BME280_pressure;Samples;Min_cycle;Max_cycle;Signal;HPM_P1;HPM_P2
2023/05/23 00:01:46;;;;;;;10.47;7.03;;;16.20;99.90;;;;;;5107773;28;20747;-70
2023/05/23 00:04:15;;;;;;;9.10;5.77;;;16.20;99.90;;;;;;5107837;28;20617;-70
2023/05/23 00:06:45;;;;;;;9.03;6.40;;;16.20;99.90;;;;;;5107470;28;21038;-70
2023/05/23 00:09:12;;;;;;;12.87;7.60;;;16.30;99.90;;;;;;5099921;28;20614;-69
2023/05/23 00:11:43;;;;;;;9.13;7.10;;;16.30;99.90;;;;;;5106968;28;20649;-70
2023/05/23 00:14:12;;;;;;;12.70;7.70;;;16.30;99.90;;;;;;5107693;28;20679;-69
2023/05/23 00:16:41;;;;;;;11.80;7.07;;;16.20;99.90;;;;;;5107663;28;20653;-70
2023/05/23 00:19:08;;;;;;;13.27;8.97;;;16.20;99.90;;;;;;5107383;28;20724;-70
2023/05/23 00:21:35;;;;;;;14.27;9.47;;;16.30;99.90;;;;;;5106871;28;21212;-70
2023/05/23 00:24:03;;;;;;;14.07;8.97;;;16.30;99.90;;;;;;5107923;28;20787;-69
2023/05/23 00:26:30;;;;;;;19.33;10.50;;;16.30;99.90;;;;;;5108105;28;20648;-70
2023/05/23 00:28:57;;;;;;;12.50;8.50;;;16.30;99.90;;;;;;5107710;28;21182;-70
2023/05/23 00:31:24;;;;;;;11.37;9.37;;;16.30;99.90;;;;;;5107048;28;20663;-70
2023/05/23 00:33:53;;;;;;;16.17;10.30;;;16.30;99.90;;;;;;5107347;28;20628;-70
2023/05/23 00:36:21;;;;;;;13.30;9.47;;;16.30;99.90;;;;;;5107347;28;20663;-69
2023/05/23 00:38:48;;;;;;;15.97;9.37;;;16.30;99.90;;;;;;5108188;28;20625;-70
2023/05/23 00:41:14;;;;;;;16.60;11.60;;;16.30;99.90;;;;;;5110175;28;20648;-70
2023/05/23 00:43:41;;;;;;;18.90;11.33;;;16.30;99.90;;;;;;5111254;28;20668;-70
2023/05/23 00:46:09;;;;;;;17.63;11.37;;;16.30;99.90;;;;;;5110767;28;20645;-70
2023/05/23 00:48:37;;;;;;;15.73;10.10;;;16.30;99.90;;;;;;5111277;28;21022;-70
2023/05/23 00:51:05;;;;;;;17.17;12.50;;;16.40;99.90;;;;;;5109339;28;20724;-70
2023/05/23 00:53:33;;;;;;;15.47;10.83;;;16.40;99.90;;;;;;5111210;28;20960;-70
2023/05/23 00:56:00;;;;;;;19.33;12.47;;;16.40;99.90;;;;;;5110751;28;20644;-69
2023/05/23 00:58:27;;;;;;;18.40;12.50;;;16.40;99.90;;;;;;5110899;28;20622;-68
2023/05/23 01:00:54;;;;;;;17.90;13.37;;;16.40;99.90;;;;;;5109786;27;20660;-68
2023/05/23 01:03:22;;;;;;;17.50;11.20;;;16.30;99.90;;;;;;5110333;28;20665;-68
2023/05/23 01:05:49;;;;;;;17.43;10.03;;;16.30;99.90;;;;;;5109912;28;20715;-68
2023/05/23 01:08:17;;;;;;;22.03;13.00;;;16.30;99.90;;;;;;5109996;28;20729;-68
2023/05/23 01:10:44;;;;;;;16.77;11.80;;;16.30;99.90;;;;;;5110055;28;21033;-69
2023/05/23 01:13:21;;;;;;;18.23;11.40;;;16.30;99.90;;;;;;5101701;28;20621;-69
2023/05/23 01:15:55;;;;;;;16.70;11.20;;;16.40;99.90;;;;;;5110534;27;21247;-69
2023/05/23 01:18:29;;;;;;;20.40;12.13;;;16.40;99.90;;;;;;5102975;28;20633;-69
2023/05/23 01:21:06;;;;;;;17.60;12.07;;;16.40;99.90;;;;;;5109923;28;20644;-69
2023/05/23 01:24:08;;;;;;;14.23;8.63;;;16.50;99.90;;;;;;5110228;28;20649;-69
2023/05/23 01:26:57;;;;;;;16.70;11.40;;;16.50;99.90;;;;;;5103456;28;20748;-68
2023/05/23 01:29:29;;;;;;;23.87;11.60;;;16.50;99.90;;;;;;5109858;28;20982;-69
2023/05/23 01:31:58;;;;;;;16.10;9.80;;;16.40;99.90;;;;;;5109667;28;20649;-69
2023/05/23 01:34:25;;;;;;;23.77;11.47;;;16.40;99.90;;;;;;5110202;28;21043;-69
2023/05/23 01:36:55;;;;;;;22.17;11.37;;;16.40;99.90;;;;;;5110144;28;20702;-69
2023/05/23 01:39:22;;;;;;;15.67;10.53;;;16.40;99.90;;;;;;5109645;28;21201;-69
2023/05/23 01:41:49;;;;;;;17.20;9.23;;;16.30;99.90;;;;;;5109450;28;21074;-69
2023/05/23 01:44:17;;;;;;;21.23;12.33;;;16.30;99.90;;;;;;5110331;28;20964;-69
2023/05/23 01:46:47;;;;;;;14.73;10.03;;;16.30;99.90;;;;;;5110063;28;20653;-69
2023/05/23 01:49:16;;;;;;;17.77;10.73;;;16.20;99.90;;;;;;5110078;28;20730;-69
2023/05/23 01:51:43;;;;;;;17.73;11.47;;;16.20;99.90;;;;;;5108032;28;20646;-68
2023/05/23 01:54:15;;;;;;;19.23;11.10;;;16.10;99.90;;;;;;5110092;28;20732;-68
2023/05/23 01:56:44;;;;;;;17.20;11.50;;;16.10;99.90;;;;;;5109300;28;21221;-68
2023/05/23 01:59:11;;;;;;;21.83;11.10;;;16.10;99.90;;;;;;5109930;28;20720;-69
2023/05/23 02:01:39;;;;;;;18.00;11.57;;;16.10;99.90;;;;;;5108828;27;20652;-69
2023/05/23 02:04:07;;;;;;;15.63;12.10;;;16.00;99.90;;;;;;5109848;28;20656;-69
2023/05/23 02:06:35;;;;;;;22.70;13.27;;;16.00;99.90;;;;;;5109714;28;20647;-68
2023/05/23 02:09:03;;;;;;;17.10;12.43;;;15.90;99.90;;;;;;5109630;28;20656;-69
2023/05/23 02:11:30;;;;;;;17.53;12.23;;;15.90;99.90;;;;;;5108688;28;20681;-69
2023/05/23 02:13:57;;;;;;;19.90;11.70;;;15.80;99.90;;;;;;5109073;28;20698;-69
2023/05/23 02:16:25;;;;;;;13.80;11.40;;;15.80;99.90;;;;;;5109375;28;20972;-69
2023/05/23 02:18:55;;;;;;;18.50;10.63;;;15.80;99.90;;;;;;5109584;28;20635;-69
2023/05/23 02:21:23;;;;;;;19.07;11.57;;;15.90;99.90;;;;;;5100410;28;20994;-69
2023/05/23 02:23:50;;;;;;;20.73;12.10;;;15.80;99.90;;;;;;5109221;28;20742;-69
2023/05/23 02:26:16;;;;;;;23.20;13.67;;;15.80;99.90;;;;;;5108886;28;20638;-69
2023/05/23 02:28:43;;;;;;;24.20;12.83;;;15.70;99.90;;;;;;5109130;28;20986;-69
2023/05/23 02:31:11;;;;;;;20.70;13.20;;;15.70;99.90;;;;;;5108398;27;20752;-69
2023/05/23 02:33:39;;;;;;;19.10;11.13;;;15.60;99.90;;;;;;5109374;28;21008;-69
2023/05/23 02:36:06;;;;;;;20.73;12.43;;;15.60;99.90;;;;;;5108940;28;20715;-69
2023/05/23 02:38:35;;;;;;;20.30;12.23;;;15.60;99.90;;;;;;5108947;28;20672;-69
2023/05/23 02:41:03;;;;;;;21.87;13.37;;;15.60;99.90;;;;;;5107940;28;21017;-69
2023/05/23 02:43:32;;;;;;;21.77;12.60;;;15.60;99.90;;;;;;5108626;28;20649;-69
2023/05/23 02:45:59;;;;;;;18.20;12.20;;;15.60;99.90;;;;;;5109246;28;20641;-69
2023/05/23 02:48:28;;;;;;;17.30;11.60;;;15.60;99.90;;;;;;5108455;28;20626;-69
2023/05/23 02:50:55;;;;;;;18.10;12.50;;;15.60;99.90;;;;;;5107300;28;20637;-70
2023/05/23 02:53:23;;;;;;;23.13;11.63;;;15.60;99.90;;;;;;5108445;28;20621;-70
2023/05/23 02:55:52;;;;;;;23.47;16.00;;;15.70;99.90;;;;;;5108725;28;21204;-70
2023/05/23 02:58:19;;;;;;;16.80;12.33;;;15.70;99.90;;;;;;5108551;28;21035;-70
2023/05/23 03:00:46;;;;;;;17.90;11.80;;;15.70;99.90;;;;;;5106097;28;20632;-70
2023/05/23 03:03:16;;;;;;;21.40;13.70;;;15.70;99.90;;;;;;5108348;28;21228;-70
2023/05/23 03:05:43;;;;;;;25.53;13.00;;;15.70;99.90;;;;;;5108620;28;20641;-70
2023/05/23 03:08:10;;;;;;;23.47;12.90;;;15.70;99.90;;;;;;5108626;28;20629;-70
2023/05/23 03:10:38;;;;;;;16.63;10.17;;;15.70;99.90;;;;;;5107470;28;20676;-70
2023/05/23 03:13:08;;;;;;;20.63;13.97;;;15.70;99.90;;;;;;5106896;28;20617;-69
2023/05/23 03:15:35;;;;;;;22.93;13.20;;;15.70;99.90;;;;;;5108399;28;20648;-69
2023/05/23 03:18:02;;;;;;;17.00;11.00;;;15.70;99.90;;;;;;5108345;28;20682;-69
2023/05/23 03:20:29;;;;;;;23.27;13.20;;;15.70;99.90;;;;;;5107084;28;20636;-70
2023/05/23 03:22:57;;;;;;;18.67;12.87;;;15.70;99.90;;;;;;5107620;28;20650;-70
2023/05/23 03:25:25;;;;;;;23.20;14.07;;;15.70;99.90;;;;;;5107948;27;20641;-70
2023/05/23 03:27:53;;;;;;;28.00;13.60;;;15.70;99.90;;;;;;5108207;28;20637;-69
2023/05/23 03:30:21;;;;;;;20.30;13.73;;;15.80;99.90;;;;;;5107399;28;20630;-69
2023/05/23 03:32:50;;;;;;;21.60;12.67;;;15.80;99.90;;;;;;5107947;28;20701;-70
2023/05/23 03:35:17;;;;;;;20.50;13.87;;;15.80;99.90;;;;;;5108033;28;20963;-70
2023/05/23 03:37:44;;;;;;;22.33;13.50;;;15.90;99.90;;;;;;5108336;28;20729;-70
2023/05/23 03:40:11;;;;;;;18.27;13.50;;;15.90;99.90;;;;;;5107498;28;20932;-69
2023/05/23 03:42:39;;;;;;;22.23;12.40;;;15.80;99.90;;;;;;5107687;28;20624;-69
2023/05/23 03:45:07;;;;;;;21.57;13.23;;;15.90;99.90;;;;;;5107831;28;20746;-69
2023/05/23 03:47:35;;;;;;;21.13;12.43;;;15.90;99.90;;;;;;5107615;28;20980;-69
2023/05/23 03:50:02;;;;;;;22.67;14.90;;;15.90;99.90;;;;;;5106861;28;20629;-68
2023/05/23 03:52:28;;;;;;;19.60;12.70;;;15.90;99.90;;;;;;5107989;28;20941;-68
2023/05/23 03:54:55;;;;;;;21.03;12.90;;;15.90;99.90;;;;;;5108112;28;20624;-68
2023/05/23 03:57:23;;;;;;;19.47;12.87;;;15.90;99.90;;;;;;5108199;28;20714;-68
2023/05/23 03:59:50;;;;;;;27.17;13.53;;;15.90;99.90;;;;;;5106972;28;21330;-69
2023/05/23 04:02:17;;;;;;;20.90;12.80;;;15.90;99.90;;;;;;5107638;28;21093;-69
2023/05/23 04:04:45;;;;;;;24.13;13.70;;;16.00;99.90;;;;;;5107965;28;20731;-69
2023/05/23 04:07:13;;;;;;;23.17;14.60;;;16.00;99.90;;;;;;5107901;28;20645;-69
2023/05/23 04:09:40;;;;;;;18.93;12.40;;;15.90;99.90;;;;;;5107208;28;20626;-69
2023/05/23 04:12:08;;;;;;;15.20;10.70;;;16.00;99.90;;;;;;5107677;28;20641;-69
2023/05/23 04:14:35;;;;;;;23.70;14.03;;;15.90;99.90;;;;;;5108978;28;21029;-69
2023/05/23 04:17:01;;;;;;;23.43;13.97;;;16.00;99.90;;;;;;5111849;28;21256;-69
2023/05/23 04:19:28;;;;;;;19.67;11.57;;;16.00;99.90;;;;;;5111073;28;21060;-69
2023/05/23 04:21:56;;;;;;;22.83;13.07;;;16.00;99.90;;;;;;5111484;27;20645;-69
2023/05/23 04:24:23;;;;;;;21.60;12.30;;;16.10;99.90;;;;;;5103483;28;20664;-69
2023/05/23 04:26:50;;;;;;;25.77;11.77;;;16.10;99.90;;;;;;5111374;28;20735;-69
2023/05/23 04:29:17;;;;;;;18.30;12.10;;;16.10;99.90;;;;;;5111089;28;20633;-69
2023/05/23 04:31:44;;;;;;;16.77;10.87;;;16.20;99.90;;;;;;5111106;28;21198;-69
2023/05/23 04:34:11;;;;;;;22.23;11.97;;;16.20;99.90;;;;;;5111721;28;20630;-69
2023/05/23 04:36:39;;;;;;;17.37;12.07;;;16.20;99.90;;;;;;5111194;28;20656;-69
2023/05/23 04:39:07;;;;;;;20.87;13.87;;;16.30;99.90;;;;;;5111641;28;20622;-69
2023/05/23 04:41:35;;;;;;;19.67;12.80;;;16.20;99.90;;;;;;5109844;28;20649;-70
2023/05/23 04:44:02;;;;;;;23.47;14.47;;;16.30;99.90;;;;;;5111417;28;21199;-69
2023/05/23 04:46:29;;;;;;;13.90;10.30;;;16.20;99.90;;;;;;5110876;28;20646;-69
2023/05/23 04:48:57;;;;;;;19.80;11.40;;;16.10;99.90;;;;;;5111187;28;20630;-69
2023/05/23 04:51:24;;;;;;;16.93;11.67;;;16.10;99.90;;;;;;5109239;28;20649;-69
2023/05/23 04:53:51;;;;;;;13.43;11.27;;;16.20;99.90;;;;;;5111476;28;20641;-69
2023/05/23 04:56:21;;;;;;;19.80;11.97;;;16.20;99.90;;;;;;5110339;28;20748;-69
2023/05/23 04:58:48;;;;;;;19.10;14.20;;;16.20;99.90;;;;;;5111041;28;20626;-69
2023/05/23 05:01:14;;;;;;;17.27;12.40;;;16.10;99.90;;;;;;5109963;27;21378;-69
2023/05/23 05:03:41;;;;;;;17.93;11.40;;;16.20;99.90;;;;;;5110946;28;20663;-70
2023/05/23 05:06:08;;;;;;;17.30;12.00;;;16.20;99.90;;;;;;5110751;28;21222;-69
2023/05/23 05:08:36;;;;;;;20.57;12.80;;;16.10;99.90;;;;;;5110655;28;20991;-69
2023/05/23 05:11:03;;;;;;;16.37;10.63;;;16.10;99.90;;;;;;5109659;28;20656;-69
2023/05/23 05:13:31;;;;;;;14.50;11.40;;;16.20;99.90;;;;;;5110708;28;20615;-69
2023/05/23 05:15:57;;;;;;;19.00;11.67;;;16.20;99.90;;;;;;5110473;28;20657;-69
2023/05/23 05:18:25;;;;;;;15.87;11.07;;;16.20;99.90;;;;;;5110867;28;20621;-69
2023/05/23 05:20:52;;;;;;;20.67;11.60;;;16.20;99.90;;;;;;5110192;27;20646;-69
2023/05/23 05:23:19;;;;;;;18.20;11.47;;;16.20;99.90;;;;;;5110038;28;21097;-70
2023/05/23 05:25:46;;;;;;;17.90;10.87;;;16.30;99.90;;;;;;5110353;28;21273;-69
2023/05/23 05:28:13;;;;;;;20.10;12.60;;;16.30;99.90;;;;;;5110286;28;20986;-69
2023/05/23 05:30:41;;;;;;;16.40;12.37;;;16.20;99.90;;;;;;5109682;28;20995;-69
2023/05/23 05:33:09;;;;;;;16.27;10.63;;;16.20;99.90;;;;;;5105182;28;20634;-69
2023/05/23 05:35:37;;;;;;;21.70;12.20;;;16.20;99.90;;;;;;5109978;28;20649;-69
2023/05/23 05:38:04;;;;;;;17.77;12.33;;;16.20;99.90;;;;;;5109778;28;20658;-69
2023/05/23 05:40:31;;;;;;;19.37;11.10;;;16.10;99.90;;;;;;5109404;28;20750;-69
2023/05/23 05:42:58;;;;;;;19.03;12.00;;;16.20;99.90;;;;;;5110179;28;20629;-69
2023/05/23 05:45:25;;;;;;;18.80;9.80;;;16.20;99.90;;;;;;5109834;28;20764;-69
2023/05/23 05:47:53;;;;;;;24.53;13.00;;;16.20;99.90;;;;;;5110042;28;20623;-70
2023/05/23 05:50:20;;;;;;;20.07;13.40;;;16.20;99.90;;;;;;5108739;28;20632;-68
2023/05/23 05:52:46;;;;;;;19.97;12.10;;;16.10;99.90;;;;;;5109568;28;20664;-68
2023/05/23 05:55:13;;;;;;;16.80;12.30;;;16.20;99.90;;;;;;5110142;27;20984;-69
2023/05/23 05:57:41;;;;;;;18.73;12.47;;;16.30;99.90;;;;;;5109940;28;20626;-68
2023/05/23 06:00:12;;;;;;;16.17;10.40;;;16.40;99.90;;;;;;5108900;28;20633;-69
2023/05/23 06:02:39;;;;;;;18.83;12.33;;;16.50;99.90;;;;;;5109680;28;20647;-69
2023/05/23 06:05:10;;;;;;;16.43;11.97;;;16.50;99.90;;;;;;5100796;28;20655;-69
2023/05/23 06:07:38;;;;;;;20.50;11.53;;;16.60;99.90;;;;;;5109807;28;20626;-70
2023/05/23 06:10:05;;;;;;;14.97;12.13;;;16.60;99.90;;;;;;5108864;28;21174;-68
2023/05/23 06:12:32;;;;;;;16.07;10.60;;;16.50;99.90;;;;;;5109352;28;20619;-68
2023/05/23 06:14:59;;;;;;;18.70;12.17;;;16.60;99.90;;;;;;5109470;28;21116;-69
2023/05/23 06:17:26;;;;;;;17.53;12.00;;;16.70;99.90;;;;;;5109705;28;20645;-69
2023/05/23 06:19:52;;;;;;;20.13;12.07;;;16.60;99.90;;;;;;5108763;28;20634;-69
2023/05/23 06:22:21;;;;;;;12.17;10.63;;;16.60;99.90;;;;;;5109233;28;20648;-69
2023/05/23 06:24:47;;;;;;;17.87;11.17;;;16.50;99.90;;;;;;5109201;28;20991;-68
2023/05/23 06:27:14;;;;;;;17.00;11.87;;;16.60;99.90;;;;;;5108911;28;20652;-68
2023/05/23 06:29:41;;;;;;;18.93;10.87;;;16.70;99.90;;;;;;5108647;28;20641;-70
2023/05/23 06:32:08;;;;;;;16.67;11.47;;;16.80;99.90;;;;;;5108319;28;20668;-69
2023/05/23 06:34:35;;;;;;;16.23;11.00;;;16.90;99.90;;;;;;5101031;28;20622;-69
2023/05/23 06:37:01;;;;;;;16.60;13.63;;;17.00;99.90;;;;;;5108219;28;20658;-69
2023/05/23 06:39:30;;;;;;;19.70;12.20;;;17.00;99.90;;;;;;5108540;28;20623;-68
2023/05/23 06:41:56;;;;;;;17.70;13.20;;;17.00;99.90;;;;;;5108728;28;20660;-69
2023/05/23 06:44:23;;;;;;;15.90;10.60;;;16.90;99.90;;;;;;5108724;27;20750;-69
2023/05/23 06:46:50;;;;;;;17.17;11.50;;;16.80;99.90;;;;;;5108473;28;20653;-68
2023/05/23 06:49:17;;;;;;;12.60;10.90;;;16.80;99.90;;;;;;5108824;28;20628;-69
2023/05/23 06:51:43;;;;;;;22.80;12.10;;;16.90;99.90;;;;;;5107324;28;21005;-69
2023/05/23 06:54:10;;;;;;;14.40;11.20;;;16.80;99.90;;;;;;5108821;28;20633;-68
2023/05/23 06:56:38;;;;;;;13.13;9.80;;;16.90;99.90;;;;;;5108653;28;20642;-69
2023/05/23 06:59:05;;;;;;;15.50;11.07;;;16.80;99.90;;;;;;5108239;28;20629;-70
2023/05/23 07:01:32;;;;;;;17.47;11.00;;;16.90;99.90;;;;;;5107995;28;20656;-69
2023/05/23 07:03:59;;;;;;;14.40;10.00;;;16.80;99.90;;;;;;5108711;28;20659;-70
2023/05/23 07:06:27;;;;;;;16.60;12.27;;;16.70;99.90;;;;;;5108842;28;20645;-69
2023/05/23 07:08:54;;;;;;;16.30;10.67;;;16.50;99.90;;;;;;5108278;28;20631;-70
2023/05/23 07:11:21;;;;;;;16.47;11.53;;;16.50;99.90;;;;;;5107740;27;20655;-69
2023/05/23 07:13:49;;;;;;;14.17;10.50;;;16.50;99.90;;;;;;5108059;28;20633;-69
2023/05/23 07:16:16;;;;;;;13.07;10.20;;;16.50;99.90;;;;;;5099473;28;21247;-69
2023/05/23 07:18:43;;;;;;;12.50;10.67;;;16.50;99.90;;;;;;5107165;28;20628;-69
2023/05/23 07:21:09;;;;;;;15.27;10.40;;;16.40;99.90;;;;;;5105952;28;20647;-69
2023/05/23 07:23:36;;;;;;;19.63;10.07;;;16.20;99.90;;;;;;5107659;28;21087;-69
2023/05/23 07:26:03;;;;;;;14.40;10.27;;;16.20;99.90;;;;;;5107246;28;21024;-69
2023/05/23 07:28:30;;;;;;;19.47;11.03;;;16.30;99.90;;;;;;5106797;28;20617;-69
2023/05/23 07:30:58;;;;;;;16.77;10.30;;;16.20;99.90;;;;;;5106586;28;20652;-70
2023/05/23 07:33:25;;;;;;;15.40;10.30;;;16.20;99.90;;;;;;5107687;28;20626;-69
2023/05/23 07:35:52;;;;;;;16.67;10.00;;;16.30;99.90;;;;;;5107920;28;20693;-69
2023/05/23 07:38:18;;;;;;;13.63;10.43;;;16.20;99.90;;;;;;5108258;28;20632;-70
2023/05/23 07:40:45;;;;;;;15.40;10.03;;;16.10;99.90;;;;;;5107178;28;20656;-69
2023/05/23 07:43:12;;;;;;;13.57;8.80;;;16.20;99.90;;;;;;5103960;28;20740;-69
2023/05/23 07:45:39;;;;;;;13.13;9.67;;;16.20;99.90;;;;;;5107751;28;20680;-69
2023/05/23 07:48:08;;;;;;;13.30;9.87;;;16.10;99.90;;;;;;5109241;28;20628;-69
2023/05/23 07:50:35;;;;;;;16.83;11.80;;;16.10;99.90;;;;;;5110428;28;20669;-69
2023/05/23 07:53:02;;;;;;;14.37;9.17;;;16.00;99.90;;;;;;5112636;27;20694;-69
2023/05/23 07:55:29;;;;;;;15.37;11.60;;;16.00;99.90;;;;;;5111764;28;20647;-69
2023/05/23 07:57:55;;;;;;;15.67;11.07;;;15.90;99.90;;;;;;5103702;28;20716;-69
2023/05/23 08:00:22;;;;;;;21.20;10.90;;;16.00;99.90;;;;;;5111423;28;20632;-69
2023/05/23 08:02:49;;;;;;;14.80;10.93;;;15.90;99.90;;;;;;5111964;28;20617;-69
2023/05/23 08:05:18;;;;;;;15.47;9.87;;;16.00;99.90;;;;;;5111858;28;20642;-69
2023/05/23 08:07:45;;;;;;;13.23;9.60;;;16.10;99.90;;;;;;5111847;28;20623;-70
2023/05/23 08:10:12;;;;;;;13.70;9.27;;;16.10;99.90;;;;;;5111034;28;20661;-69
2023/05/23 08:12:39;;;;;;;14.10;9.60;;;16.10;99.90;;;;;;5112096;28;20624;-69
2023/05/23 08:15:06;;;;;;;14.30;10.20;;;16.10;99.90;;;;;;5111766;28;20630;-69
2023/05/23 08:17:33;;;;;;;18.93;10.10;;;16.00;99.90;;;;;;5111707;28;21192;-69
2023/05/23 08:20:00;;;;;;;15.80;9.17;;;16.00;99.90;;;;;;5111383;28;21161;-69
2023/05/23 08:22:29;;;;;;;10.30;9.23;;;16.00;99.90;;;;;;5111866;28;20642;-69
2023/05/23 08:24:56;;;;;;;10.70;9.30;;;16.20;99.90;;;;;;5111304;28;21088;-69
2023/05/23 08:27:22;;;;;;;14.70;9.50;;;16.00;99.90;;;;;;5111716;28;21006;-69
2023/05/23 08:29:49;;;;;;;13.90;9.00;;;16.00;99.90;;;;;;5110934;28;21041;-69
2023/05/23 08:32:16;;;;;;;10.83;8.30;;;16.00;99.90;;;;;;5111266;28;21027;-69
2023/05/23 08:34:43;;;;;;;11.50;8.17;;;15.80;99.90;;;;;;5111418;28;20708;-69
2023/05/23 08:37:09;;;;;;;17.00;8.43;;;15.80;99.90;;;;;;5111038;28;20989;-69
2023/05/23 08:39:38;;;;;;;12.13;8.83;;;15.90;99.90;;;;;;5110835;28;20616;-69
2023/05/23 08:42:05;;;;;;;15.03;9.43;;;15.90;99.90;;;;;;5111631;28;20649;-69
2023/05/23 08:44:32;;;;;;;11.07;8.50;;;15.60;99.90;;;;;;5111167;28;20652;-69
2023/05/23 08:47:04;;;;;;;13.23;8.30;;;15.50;99.90;;;;;;5110999;28;20745;-69
2023/05/23 08:49:31;;;;;;;11.27;8.00;;;15.50;99.90;;;;;;5110306;28;21172;-69
2023/05/23 08:52:02;;;;;;;13.67;8.43;;;15.70;99.90;;;;;;5111178;28;20716;-69
2023/05/23 08:54:29;;;;;;;8.80;7.50;;;15.70;99.90;;;;;;5111334;28;20617;-69
2023/05/23 08:56:58;;;;;;;11.50;7.33;;;15.60;99.90;;;;;;5102800;28;20649;-69
2023/05/23 08:59:26;;;;;;;11.20;7.80;;;15.80;99.90;;;;;;5110235;28;20627;-69
2023/05/23 09:01:56;;;;;;;13.03;8.30;;;15.90;99.90;;;;;;5110213;28;20646;-69
2023/05/23 09:04:23;;;;;;;11.70;8.13;;;15.90;99.90;;;;;;5111060;27;20619;-69
2023/05/23 09:06:51;;;;;;;9.27;7.43;;;16.00;99.90;;;;;;5110732;28;20657;-69
2023/05/23 09:09:18;;;;;;;10.27;7.70;;;16.30;99.90;;;;;;5110525;28;21046;-69
2023/05/23 09:11:45;;;;;;;9.60;6.50;;;16.20;99.90;;;;;;5110511;28;20646;-69
2023/05/23 09:14:16;;;;;;;10.00;6.93;;;16.10;99.90;;;;;;5102397;28;20625;-69
2023/05/23 09:16:46;;;;;;;9.53;6.43;;;16.20;99.90;;;;;;5109819;28;20728;-69
2023/05/23 09:19:14;;;;;;;11.07;7.30;;;16.00;99.90;;;;;;5111017;28;20626;-69
2023/05/23 09:21:43;;;;;;;12.80;7.80;;;16.10;99.90;;;;;;5109968;28;21009;-69
2023/05/23 09:24:10;;;;;;;9.53;7.17;;;16.10;99.90;;;;;;5110540;28;20628;-69
2023/05/23 09:26:38;;;;;;;8.33;6.80;;;16.10;99.90;;;;;;5110345;27;20651;-70
2023/05/23 09:29:06;;;;;;;11.40;7.33;;;16.10;99.90;;;;;;5110516;28;20980;-69
2023/05/23 09:31:34;;;;;;;10.87;6.23;;;16.00;99.90;;;;;;5109468;28;20664;-69
2023/05/23 09:34:01;;;;;;;8.20;5.87;;;16.00;99.90;;;;;;5110335;28;20630;-70
2023/05/23 09:36:29;;;;;;;9.03;5.73;;;16.10;99.90;;;;;;5110063;28;20653;-69
2023/05/23 09:38:56;;;;;;;10.43;7.47;;;16.10;99.90;;;;;;5110302;28;20679;-70
2023/05/23 09:41:23;;;;;;;8.17;6.07;;;16.10;99.90;;;;;;5109159;28;20651;-69
2023/05/23 09:43:52;;;;;;;7.90;5.40;;;16.20;99.90;;;;;;5109804;28;20657;-69
2023/05/23 09:46:19;;;;;;;8.83;5.73;;;16.20;99.90;;;;;;5110201;28;20752;-69
2023/05/23 09:48:50;;;;;;;8.67;5.20;;;16.20;99.90;;;;;;5101586;28;20622;-71
2023/05/23 09:51:19;;;;;;;6.17;5.10;;;16.30;99.90;;;;;;5107778;28;20769;-69
2023/05/23 09:53:46;;;;;;;6.80;5.33;;;16.20;99.90;;;;;;5109777;28;20709;-69
2023/05/23 09:56:15;;;;;;;7.10;5.53;;;16.10;99.90;;;;;;5109692;28;20646;-69
2023/05/23 09:58:45;;;;;;;5.97;5.37;;;16.10;99.90;;;;;;5110130;28;20694;-69
2023/05/23 10:01:12;;;;;;;6.70;5.40;;;16.20;99.90;;;;;;5109181;28;20653;-70
2023/05/23 10:03:44;;;;;;;6.53;4.70;;;16.40;99.90;;;;;;5109649;28;20624;-70
2023/05/23 10:06:18;;;;;;;4.10;3.70;;;16.60;99.90;;;;;;5109469;28;20673;-69
2023/05/23 10:08:50;;;;;;;6.93;4.93;;;16.60;99.90;;;;;;5109385;28;20977;-68
2023/05/23 10:12:12;;;;;;;6.67;4.70;;;16.40;99.90;;;;;;5108426;28;21131;-69
2023/05/23 10:14:45;;;;;;;7.40;4.53;;;16.40;99.90;;;;;;5104938;28;20633;-69
2023/05/23 10:17:18;;;;;;;7.10;4.00;;;16.50;99.90;;;;;;5108971;28;20642;-69
2023/05/23 10:19:50;;;;;;;7.70;5.30;;;16.30;99.90;;;;;;5108770;28;20972;-69
2023/05/23 10:22:20;;;;;;;6.20;4.53;;;16.40;99.90;;;;;;5109364;28;20647;-70
2023/05/23 10:24:48;;;;;;;7.60;5.10;;;16.60;99.90;;;;;;5109310;28;20738;-70
2023/05/23 10:27:15;;;;;;;5.23;3.83;;;16.70;99.90;;;;;;5109118;28;20686;-70
2023/05/23 10:29:43;;;;;;;9.57;4.60;;;16.80;99.90;;;;;;5108323;28;20630;-70
2023/05/23 10:32:20;;;;;;;5.87;4.83;;;16.90;99.90;;;;;;5127340;27;20740;-68
2023/05/23 10:34:57;;;;;;;5.03;3.97;;;17.30;99.90;;;;;;5137689;27;20621;-71
2023/05/23 10:37:31;;;;;;;6.43;5.37;;;17.50;99.30;;;;;;5136258;27;20650;-70
2023/05/23 10:40:04;;;;;;;6.43;4.43;;;17.60;99.30;;;;;;5133519;27;20626;-70
2023/05/23 10:42:42;;;;;;;5.83;3.47;;;17.60;98.80;;;;;;5138770;27;21440;-70
2023/05/23 10:45:18;;;;;;;5.10;4.20;;;17.40;98.50;;;;;;5134291;27;20619;-70
2023/05/23 10:47:48;;;;;;;7.60;5.37;;;17.40;98.50;;;;;;5116946;28;21253;-70
2023/05/23 10:50:30;;;;;;;4.43;3.50;;;17.30;98.40;;;;;;5132020;27;21030;-70
2023/05/23 10:52:57;;;;;;;5.20;4.47;;;17.20;98.70;;;;;;5118276;28;20730;-70
2023/05/23 10:55:24;;;;;;;5.03;4.27;;;17.10;98.80;;;;;;5134245;27;20738;-69
2023/05/23 10:58:09;;;;;;;7.73;4.43;;;17.20;99.60;;;;;;5136902;27;21174;-70
2023/05/23 11:00:36;;;;;;;4.80;3.90;;;17.40;99.50;;;;;;5134707;27;20654;-70
2023/05/23 11:03:07;;;;;;;4.23;3.70;;;17.60;99.00;;;;;;5136731;27;20630;-70
2023/05/23 11:05:37;;;;;;;4.70;3.60;;;17.70;98.70;;;;;;5137160;27;20649;-70
2023/05/23 11:08:08;;;;;;;5.60;5.00;;;17.60;98.40;;;;;;5134072;27;21249;-70
2023/05/23 11:10:58;;;;;;;4.83;4.43;;;17.50;98.60;;;;;;5133013;27;20667;-70
2023/05/23 11:13:25;;;;;;;5.10;4.17;;;17.60;98.70;;;;;;5117914;28;21179;-70
2023/05/23 11:15:52;;;;;;;5.40;3.67;;;17.50;98.20;;;;;;5134276;27;20647;-69
2023/05/23 11:18:26;;;;;;;5.87;4.10;;;17.70;98.60;;;;;;5136951;27;20633;-70
2023/05/23 11:20:54;;;;;;;5.17;3.60;;;17.70;97.80;;;;;;5136257;27;20648;-70
2023/05/23 11:23:22;;;;;;;6.50;4.47;;;17.90;97.80;;;;;;5116642;28;20616;-70
2023/05/23 11:25:50;;;;;;;6.70;5.23;;;18.00;97.10;;;;;;5133152;27;20648;-70
2023/05/23 11:28:18;;;;;;;5.77;4.13;;;18.10;96.60;;;;;;5136108;27;20710;-69
2023/05/23 11:30:48;;;;;;;4.50;4.07;;;18.00;96.50;;;;;;5135740;27;21125;-70
2023/05/23 11:33:17;;;;;;;5.33;4.77;;;18.00;97.10;;;;;;5135417;27;20626;-69
2023/05/23 11:35:46;;;;;;;4.60;4.23;;;18.00;96.50;;;;;;5132868;27;20671;-70
2023/05/23 11:38:15;;;;;;;5.30;4.10;;;18.00;96.20;;;;;;5133325;27;20628;-69
2023/05/23 11:40:43;;;;;;;5.70;3.70;;;18.00;95.90;;;;;;5135339;27;21230;-70
2023/05/23 11:43:13;;;;;;;4.00;3.20;;;18.40;96.10;;;;;;5122581;27;20623;-69
2023/05/23 11:45:41;;;;;;;4.90;4.40;;;18.70;96.50;;;;;;5122144;27;21306;-69
2023/05/23 11:48:10;;;;;;;7.00;4.23;;;18.90;95.80;;;;;;5122704;27;21211;-69
2023/05/23 11:50:49;;;;;;;4.23;3.80;;;19.10;94.00;;;;;;5117995;27;20659;-69
2023/05/23 11:53:19;;;;;;;5.53;4.33;;;18.90;94.70;;;;;;5119379;27;20624;-69
2023/05/23 11:55:51;;;;;;;4.90;4.40;;;19.00;93.90;;;;;;5121491;27;20659;-69
2023/05/23 11:58:18;;;;;;;5.13;4.50;;;19.00;94.70;;;;;;5122851;27;21388;-69
2023/05/23 12:00:46;;;;;;;8.03;5.57;;;19.20;94.80;;;;;;5119859;27;20645;-69
2023/05/23 12:03:13;;;;;;;5.17;4.67;;;19.20;94.00;;;;;;5119243;27;20620;-69
2023/05/23 12:05:42;;;;;;;5.93;5.33;;;19.10;94.60;;;;;;5118721;27;20970;-70
2023/05/23 12:08:11;;;;;;;5.20;4.63;;;19.30;94.30;;;;;;5122303;27;20626;-69
2023/05/23 12:10:49;;;;;;;5.83;5.13;;;19.00;93.80;;;;;;5121504;27;21121;-69
2023/05/23 12:13:16;;;;;;;4.47;4.07;;;19.60;94.20;;;;;;5102499;28;20612;-69
2023/05/23 12:15:43;;;;;;;5.23;4.77;;;20.10;92.90;;;;;;5118779;27;20747;-69
2023/05/23 12:18:10;;;;;;;5.63;4.30;;;20.10;92.30;;;;;;5120679;27;21222;-69
2023/05/23 12:20:37;;;;;;;5.13;4.33;;;19.90;91.70;;;;;;5121429;27;20639;-69
2023/05/23 12:23:04;;;;;;;4.90;4.37;;;19.60;92.00;;;;;;5120984;27;20607;-69
2023/05/23 12:25:41;;;;;;;4.93;3.80;;;19.60;92.70;;;;;;5118654;27;20655;-70
2023/05/23 12:28:07;;;;;;;4.83;4.33;;;20.20;92.80;;;;;;5119627;27;20891;-70
2023/05/23 12:30:42;;;;;;;6.20;5.00;;;21.20;90.60;;;;;;5120360;27;20659;-70
2023/05/23 12:33:09;;;;;;;4.50;3.90;;;23.00;90.00;;;;;;5121675;27;21124;-70
2023/05/23 12:35:36;;;;;;;6.30;4.03;;;24.60;88.20;;;;;;5118752;27;20658;-70
2023/05/23 12:38:05;;;;;;;4.50;4.10;;;25.60;81.50;;;;;;5118219;27;20619;-70
2023/05/23 12:40:32;;;;;;;4.63;4.10;;;25.30;75.10;;;;;;5120083;27;20655;-70